createdAt,value
2018-08-09T00:02:07.390Z,20.00
2018-08-09T00:04:35.717Z,19.90
2018-08-09T00:07:03.948Z,19.80
2018-08-09T00:09:32.295Z,19.80
2018-08-09T00:12:00.584Z,19.70
2018-08-09T00:14:28.948Z,19.70
2018-08-09T00:16:57.226Z,19.60
2018-08-09T00:19:30.980Z,19.60
2018-08-09T00:21:59.281Z,19.50
2018-08-09T00:24:27.557Z,19.50
2018-08-09T00:26:55.805Z,19.40
2018-08-09T00:29:24.077Z,19.40
2018-08-09T00:31:52.356Z,19.30
2018-08-09T00:34:20.623Z,19.30
2018-08-09T00:36:48.896Z,19.20
2018-08-09T00:39:17.187Z,19.10
2018-08-09T00:41:45.454Z,19.10
2018-08-09T00:44:13.738Z,19.00
2018-08-09T00:46:42.001Z,19.00
2018-08-09T00:49:10.376Z,18.90
2018-08-09T00:51:38.731Z,18.80
2018-08-09T00:54:07.696Z,18.70
2018-08-09T00:56:35.987Z,18.70
2018-08-09T00:59:04.692Z,18.60
2018-08-09T01:01:33.052Z,18.50
2018-08-09T01:04:01.332Z,18.50
2018-08-09T01:06:29.608Z,18.50
2018-08-09T01:09:03.112Z,18.40
2018-08-09T01:11:31.384Z,18.40
2018-08-09T01:13:59.683Z,18.40
2018-08-09T01:16:27.975Z,18.30
2018-08-09T01:18:56.207Z,18.30
2018-08-09T01:21:24.529Z,18.20
2018-08-09T01:23:52.804Z,18.20
2018-08-09T01:26:21.300Z,18.20
2018-08-09T01:28:49.556Z,18.10
2018-08-09T01:31:35.601Z,18.10
2018-08-09T01:34:05.113Z,18.10
2018-08-09T01:36:34.148Z,18.10
2018-08-09T01:39:03.448Z,18.10
2018-08-09T01:41:31.716Z,18.00
2018-08-09T01:44:02.514Z,18.00
2018-08-09T01:46:30.996Z,18.00
2018-08-09T01:48:59.893Z,18.00
2018-08-09T01:51:28.816Z,17.90
2018-08-09T01:53:57.216Z,17.90
2018-08-09T01:56:25.575Z,17.80
2018-08-09T01:58:54.536Z,17.80
2018-08-09T02:01:22.847Z,17.80
2018-08-09T02:03:51.116Z,17.80
2018-08-09T02:06:19.896Z,17.70
2018-08-09T02:08:48.744Z,17.70
2018-08-09T02:11:17.082Z,17.60
2018-08-09T02:13:45.353Z,17.60
2018-08-09T02:16:13.724Z,17.50
2018-08-09T02:18:41.921Z,17.50
2018-08-09T02:21:10.977Z,17.40
2018-08-09T02:23:39.253Z,17.40
2018-08-09T02:26:07.529Z,17.40
2018-08-09T02:28:36.137Z,17.30
2018-08-09T02:31:04.533Z,17.40
2018-08-09T02:33:32.808Z,17.30
2018-08-09T02:36:01.081Z,17.30
2018-08-09T02:38:29.329Z,17.30
2018-08-09T02:40:57.717Z,17.30
2018-08-09T02:43:26.012Z,17.30
2018-08-09T02:45:54.273Z,17.30
2018-08-09T02:48:22.571Z,17.20
2018-08-09T02:50:50.846Z,17.30
2018-08-09T02:53:19.189Z,17.20
2018-08-09T02:55:51.684Z,17.30
2018-08-09T02:58:20.148Z,17.20
2018-08-09T03:00:48.496Z,17.20
2018-08-09T03:03:16.796Z,17.20
2018-08-09T03:05:51.665Z,17.10
2018-08-09T03:08:19.949Z,17.10
2018-08-09T03:10:48.193Z,17.10
2018-08-09T03:13:16.498Z,17.10
2018-08-09T03:15:44.824Z,17.00
2018-08-09T03:18:13.053Z,17.00
2018-08-09T03:20:41.323Z,17.00
2018-08-09T03:23:09.601Z,17.00
2018-08-09T03:25:37.941Z,17.00
2018-08-09T03:28:06.225Z,17.00
2018-08-09T03:30:34.570Z,17.00
2018-08-09T03:33:02.862Z,17.00
2018-08-09T03:35:31.134Z,16.90
2018-08-09T03:37:59.536Z,17.00
2018-08-09T03:40:28.461Z,17.00
2018-08-09T03:42:56.934Z,16.90
2018-08-09T03:45:25.240Z,16.90
2018-08-09T03:47:53.484Z,16.90
2018-08-09T03:50:21.768Z,16.90
2018-08-09T03:52:50.051Z,16.90
2018-08-09T03:55:18.324Z,16.90
2018-08-09T03:57:46.762Z,16.90
2018-08-09T04:00:15.057Z,16.90
2018-08-09T04:02:43.317Z,16.90
2018-08-09T04:05:11.621Z,16.80
2018-08-09T04:07:40.414Z,16.80
2018-08-09T04:10:09.145Z,16.80
2018-08-09T04:12:37.506Z,16.80
2018-08-09T04:15:07.285Z,16.80
2018-08-09T04:17:35.570Z,16.80
2018-08-09T04:20:04.106Z,16.80
2018-08-09T04:22:32.396Z,16.80
2018-08-09T04:25:00.685Z,16.80
2018-08-09T04:27:28.977Z,16.80
2018-08-09T04:29:57.319Z,16.80
2018-08-09T04:32:25.602Z,16.80
2018-08-09T04:34:53.894Z,16.90
2018-08-09T04:37:22.189Z,16.90
2018-08-09T04:39:50.564Z,16.80
2018-08-09T04:42:18.845Z,16.90
2018-08-09T04:44:47.372Z,16.90
2018-08-09T04:47:15.665Z,16.90
2018-08-09T04:49:43.960Z,16.90
2018-08-09T04:52:12.330Z,16.90
2018-08-09T04:54:40.556Z,16.90
2018-08-09T04:57:08.833Z,17.00
2018-08-09T04:59:37.265Z,17.00
2018-08-09T05:02:05.599Z,17.00
2018-08-09T05:04:33.958Z,17.00
2018-08-09T05:07:02.676Z,17.10
2018-08-09T05:09:30.976Z,17.10
2018-08-09T05:11:59.492Z,17.10
2018-08-09T05:14:27.781Z,17.20
2018-08-09T05:16:56.026Z,17.20
2018-08-09T05:19:24.264Z,17.20
2018-08-09T05:21:52.570Z,17.30
2018-08-09T05:24:20.860Z,17.30
2018-08-09T05:26:49.077Z,17.30
2018-08-09T05:29:17.450Z,17.40
2018-08-09T05:31:45.689Z,17.50
2018-08-09T05:34:14.051Z,17.50
2018-08-09T05:36:42.288Z,17.60
2018-08-09T05:39:11.645Z,17.70
2018-08-09T05:41:40.177Z,17.70
2018-08-09T05:44:08.464Z,17.80
2018-08-09T05:46:36.768Z,17.80
2018-08-09T05:49:05.152Z,17.90
2018-08-09T05:51:33.471Z,18.00
2018-08-09T05:54:01.737Z,18.00
2018-08-09T05:56:30.293Z,18.10
2018-08-09T05:58:58.813Z,18.20
2018-08-09T06:01:27.197Z,18.20
2018-08-09T06:03:55.684Z,18.30
2018-08-09T06:06:24.017Z,18.40
2018-08-09T06:08:52.378Z,18.50
2018-08-09T06:11:20.652Z,18.50
2018-08-09T06:13:48.929Z,18.60
2018-08-09T06:16:17.260Z,18.70
2018-08-09T06:18:45.738Z,18.70
2018-08-09T06:21:13.996Z,18.80
2018-08-09T06:23:42.294Z,19.00
2018-08-09T06:26:10.721Z,19.00
2018-08-09T06:28:39.012Z,19.10
2018-08-09T06:31:07.325Z,19.20
2018-08-09T06:33:35.677Z,19.30
2018-08-09T06:36:03.879Z,19.40
2018-08-09T06:38:32.217Z,19.50
2018-08-09T06:41:00.742Z,19.60
2018-08-09T06:43:29.039Z,19.70
2018-08-09T06:45:57.343Z,19.80
2018-08-09T06:48:25.670Z,19.90
2018-08-09T06:50:54.004Z,20.00
2018-08-09T06:53:22.389Z,20.10
2018-08-09T06:55:57.376Z,20.20
2018-08-09T06:58:25.741Z,20.30
2018-08-09T07:00:54.019Z,20.50
2018-08-09T07:03:22.284Z,20.60
2018-08-09T07:05:50.574Z,20.80
2018-08-09T07:08:18.862Z,20.90
2018-08-09T07:10:47.150Z,21.00
2018-08-09T07:13:15.518Z,21.10
2018-08-09T07:15:43.844Z,21.20
2018-08-09T07:18:12.243Z,21.30
2018-08-09T07:20:40.557Z,21.40
2018-08-09T07:23:08.774Z,21.60
2018-08-09T07:25:37.092Z,21.80
2018-08-09T07:28:06.618Z,22.00
2018-08-09T07:30:34.933Z,22.00
2018-08-09T07:33:03.250Z,22.10
2018-08-09T07:35:31.492Z,22.20
2018-08-09T07:37:59.853Z,22.40
2018-08-09T07:40:28.113Z,22.50
2018-08-09T07:42:56.447Z,22.60
2018-08-09T07:45:24.788Z,22.60
2018-08-09T07:47:53.192Z,22.60
2018-08-09T07:50:21.556Z,22.70
2018-08-09T07:52:50.501Z,22.70
2018-08-09T07:55:18.815Z,22.80
2018-08-09T07:57:47.133Z,23.00
2018-08-09T08:00:15.471Z,23.10
2018-08-09T08:02:44.033Z,23.20
2018-08-09T08:05:12.275Z,23.20
2018-08-09T08:07:41.133Z,23.20
2018-08-09T08:10:10.324Z,23.20
2018-08-09T08:12:38.917Z,23.20
2018-08-09T08:15:08.362Z,23.30
2018-08-09T08:17:36.582Z,23.40
2018-08-09T08:20:05.371Z,23.60
2018-08-09T08:22:33.800Z,23.80
2018-08-09T08:25:02.102Z,24.00
2018-08-09T08:27:30.390Z,24.20
2018-08-09T08:29:58.804Z,24.40
2018-08-09T08:32:27.217Z,24.60
2018-08-09T08:34:55.465Z,24.80
2018-08-09T08:37:23.732Z,25.10
2018-08-09T08:39:52.013Z,25.30
2018-08-09T08:42:20.426Z,25.60
2018-08-09T08:44:48.737Z,25.70
2018-08-09T08:47:17.040Z,26.00
2018-08-09T08:49:51.940Z,26.10
2018-08-09T08:52:20.224Z,26.30
2018-08-09T08:54:48.506Z,26.60
2018-08-09T08:57:16.783Z,26.90
2018-08-09T08:59:45.137Z,27.20
2018-08-09T09:02:13.503Z,27.50
2018-08-09T09:04:41.782Z,28.00
2018-08-09T09:07:10.310Z,28.40
2018-08-09T09:09:38.533Z,28.90
2018-08-09T09:12:07.290Z,29.30
2018-08-09T09:14:35.750Z,29.70
2018-08-09T09:17:04.049Z,30.10
2018-08-09T09:19:32.369Z,30.40
2018-08-09T09:22:00.734Z,30.90
2018-08-09T09:24:29.005Z,31.10
2018-08-09T09:26:57.963Z,31.40
2018-08-09T09:29:26.332Z,31.80
2018-08-09T09:31:54.660Z,31.90
2018-08-09T09:34:22.996Z,32.10
2018-08-09T09:36:51.333Z,32.00
2018-08-09T09:39:19.611Z,31.70
2018-08-09T09:41:47.953Z,31.60
2018-08-09T09:44:16.277Z,31.60
2018-08-09T09:46:44.542Z,31.80
2018-08-09T09:49:12.914Z,32.00
2018-08-09T09:51:41.191Z,32.20
2018-08-09T09:54:09.432Z,32.40
2018-08-09T09:56:37.848Z,32.40
2018-08-09T09:59:06.226Z,32.50
2018-08-09T10:01:35.931Z,32.70
2018-08-09T10:04:05.493Z,33.00
2018-08-09T10:06:34.530Z,33.20
2018-08-09T10:09:03.706Z,33.30
2018-08-09T10:11:32.064Z,33.50
2018-08-09T10:14:00.362Z,33.50
2018-08-09T10:16:28.636Z,33.60
2018-08-09T10:18:56.900Z,33.60
2018-08-09T10:21:25.157Z,33.60
2018-08-09T10:23:53.365Z,33.60
2018-08-09T10:26:21.761Z,33.60
2018-08-09T10:28:50.031Z,33.30
2018-08-09T10:31:18.290Z,33.20
2018-08-09T10:33:46.617Z,33.10
2018-08-09T10:36:14.876Z,33.00
2018-08-09T10:38:43.196Z,33.00
2018-08-09T10:41:12.325Z,33.00
2018-08-09T10:43:40.612Z,33.10
2018-08-09T10:46:08.883Z,33.40
2018-08-09T10:48:37.160Z,33.40
2018-08-09T10:51:05.421Z,33.30
2018-08-09T10:53:33.707Z,32.90
2018-08-09T10:56:01.962Z,32.50
2018-08-09T10:58:30.248Z,32.20
2018-08-09T11:00:58.649Z,32.00
2018-08-09T11:03:26.994Z,31.80
2018-08-09T11:05:55.513Z,31.60
2018-08-09T11:08:23.910Z,31.60
2018-08-09T11:10:52.285Z,31.60
2018-08-09T11:13:20.838Z,31.70
2018-08-09T11:15:49.153Z,31.70
2018-08-09T11:18:17.523Z,31.70
2018-08-09T11:20:45.978Z,31.50
2018-08-09T11:23:14.232Z,31.40
2018-08-09T11:25:42.520Z,31.10
2018-08-09T11:28:10.776Z,30.90
2018-08-09T11:30:39.037Z,30.90
2018-08-09T11:33:07.345Z,30.80
2018-08-09T11:35:35.622Z,30.70
2018-08-09T11:38:03.894Z,30.50
2018-08-09T11:40:32.402Z,30.30
2018-08-09T11:43:00.738Z,30.20
2018-08-09T11:45:29.041Z,30.00
2018-08-09T11:47:57.317Z,29.90
2018-08-09T11:50:25.572Z,29.80
2018-08-09T11:52:53.929Z,29.60
2018-08-09T11:55:22.195Z,29.50
2018-08-09T11:57:50.452Z,29.40
2018-08-09T12:00:18.749Z,29.30
2018-08-09T12:02:47.103Z,29.20
2018-08-09T12:05:15.588Z,29.20
2018-08-09T12:07:43.880Z,29.30
2018-08-09T12:10:12.654Z,29.30
2018-08-09T12:12:40.987Z,29.40
2018-08-09T12:15:09.782Z,29.40
2018-08-09T12:17:38.045Z,29.40
2018-08-09T12:20:06.844Z,29.50
2018-08-09T12:22:35.435Z,29.50
2018-08-09T12:25:03.937Z,29.50
2018-08-09T12:27:32.287Z,29.50
2018-08-09T12:30:00.593Z,29.40
2018-08-09T12:32:28.896Z,29.40
2018-08-09T12:34:57.244Z,29.60
2018-08-09T12:37:25.594Z,30.30
2018-08-09T12:39:53.892Z,30.90
2018-08-09T12:42:22.195Z,31.60
2018-08-09T12:44:50.600Z,32.30
2018-08-09T12:47:18.937Z,32.70
2018-08-09T12:49:47.232Z,33.10
2018-08-09T12:52:15.506Z,33.50
2018-08-09T12:54:43.892Z,33.90
2018-08-09T12:57:12.269Z,33.90
2018-08-09T12:59:40.594Z,33.80
2018-08-09T13:02:09.416Z,33.70
2018-08-09T13:04:37.921Z,33.40
2018-08-09T13:07:06.253Z,33.20
2018-08-09T13:09:34.540Z,33.10
2018-08-09T13:12:02.981Z,33.10
2018-08-09T13:14:31.311Z,33.00
2018-08-09T13:16:59.849Z,32.90
2018-08-09T13:19:28.198Z,32.80
2018-08-09T13:21:56.477Z,32.70
2018-08-09T13:24:24.798Z,32.70
2018-08-09T13:26:53.121Z,32.70
2018-08-09T13:29:21.417Z,32.70
2018-08-09T13:31:49.656Z,32.80
2018-08-09T13:34:17.909Z,32.90
2018-08-09T13:36:46.177Z,32.90
2018-08-09T13:39:14.560Z,33.00
2018-08-09T13:41:44.280Z,33.00
2018-08-09T13:44:12.873Z,32.90
2018-08-09T13:46:41.210Z,32.70
2018-08-09T13:49:09.650Z,32.50
2018-08-09T13:51:38.616Z,32.40
2018-08-09T13:54:06.996Z,32.20
2018-08-09T13:56:35.300Z,31.90
2018-08-09T13:59:04.005Z,31.80
2018-08-09T14:01:32.346Z,31.50
2018-08-09T14:04:00.822Z,31.50
2018-08-09T14:06:29.132Z,31.40
2018-08-09T14:08:57.408Z,31.60
2018-08-09T14:11:25.689Z,31.90
2018-08-09T14:13:54.077Z,32.30
2018-08-09T14:16:22.345Z,32.40
2018-08-09T14:18:51.625Z,32.60
2018-08-09T14:21:20.008Z,33.10
2018-08-09T14:23:48.322Z,33.70
2018-08-09T14:26:16.752Z,34.40
2018-08-09T14:28:45.256Z,35.10
2018-08-09T14:31:13.589Z,35.60
2018-08-09T14:33:41.867Z,36.00
2018-08-09T14:36:10.175Z,36.30
2018-08-09T14:38:38.660Z,36.70
2018-08-09T14:41:06.952Z,36.80
2018-08-09T14:43:35.262Z,36.70
2018-08-09T14:46:03.640Z,36.30
2018-08-09T14:48:32.110Z,35.90
2018-08-09T14:51:00.449Z,35.50
2018-08-09T14:53:28.745Z,35.20
2018-08-09T14:55:57.036Z,34.90
2018-08-09T14:58:25.333Z,34.50
2018-08-09T15:00:53.700Z,34.20
2018-08-09T15:03:22.130Z,34.00
2018-08-09T15:05:50.717Z,33.70
2018-08-09T15:08:19.724Z,33.50
2018-08-09T15:10:47.990Z,33.40
2018-08-09T15:13:16.341Z,33.20
2018-08-09T15:15:44.593Z,33.10
2018-08-09T15:18:12.906Z,33.00
2018-08-09T15:20:41.229Z,32.90
2018-08-09T15:23:09.669Z,32.80
2018-08-09T15:25:37.983Z,32.70
2018-08-09T15:28:06.877Z,32.50
2018-08-09T15:30:35.177Z,32.30
2018-08-09T15:35:38.201Z,32.10
2018-08-09T15:38:06.667Z,32.00
2018-08-09T15:40:34.869Z,31.80
2018-08-09T15:43:03.234Z,31.80
2018-08-09T15:45:31.561Z,31.80
2018-08-09T15:47:59.960Z,31.60
2018-08-09T15:50:28.218Z,31.60
2018-08-09T15:52:56.608Z,31.40
2018-08-09T15:55:24.898Z,31.40
2018-08-09T15:57:54.010Z,31.20
2018-08-09T16:00:23.731Z,31.10
2018-08-09T16:02:52.153Z,31.00
2018-08-09T16:05:20.536Z,31.00
2018-08-09T16:07:48.863Z,30.90
2018-08-09T16:10:18.085Z,30.80
2018-08-09T16:12:46.673Z,30.80
2018-08-09T16:15:16.503Z,30.70
2018-08-09T16:17:45.903Z,30.70
2018-08-09T16:20:14.220Z,30.60
2018-08-09T16:22:43.443Z,30.50
2018-08-09T16:25:18.101Z,30.50
2018-08-09T16:27:46.789Z,30.40
2018-08-09T16:30:23.664Z,30.40
2018-08-09T16:32:52.013Z,30.30
2018-08-09T16:35:20.304Z,30.20
2018-08-09T16:37:48.761Z,30.10
2018-08-09T16:40:18.512Z,30.10
2018-08-09T16:42:46.980Z,30.00
2018-08-09T16:45:16.388Z,29.80
2018-08-09T16:47:44.766Z,29.70
2018-08-09T16:50:16.618Z,29.60
2018-08-09T16:52:45.596Z,29.50
2018-08-09T16:55:14.771Z,29.30
2018-08-09T16:57:43.292Z,29.30
2018-08-09T17:00:14.136Z,29.10
2018-08-09T17:02:42.742Z,29.00
2018-08-09T17:05:16.913Z,28.90
2018-08-09T17:07:45.354Z,28.80
2018-08-09T17:10:15.440Z,28.70
2018-08-09T17:12:43.776Z,28.50
2018-08-09T17:15:15.783Z,28.40
2018-08-09T17:17:44.101Z,28.40
2018-08-09T17:20:18.109Z,28.30
2018-08-09T17:22:46.490Z,28.20
2018-08-09T17:25:14.933Z,28.10
2018-08-09T17:27:44.534Z,28.00
2018-08-09T17:30:14.374Z,27.90
2018-08-09T17:32:42.773Z,27.60
2018-08-09T17:35:12.565Z,26.60
2018-08-09T17:37:41.029Z,25.50
2018-08-09T17:40:15.231Z,24.40
2018-08-09T17:42:43.494Z,23.40
2018-08-09T17:45:12.231Z,22.70
2018-08-09T17:47:40.590Z,22.20
2018-08-09T17:50:09.253Z,21.90
2018-08-09T17:52:37.827Z,21.70
2018-08-09T17:55:08.504Z,21.50
2018-08-09T17:57:36.849Z,21.40
2018-08-09T18:00:07.889Z,21.30
2018-08-09T18:02:36.234Z,21.20
2018-08-09T18:05:05.924Z,21.20
2018-08-09T18:07:34.319Z,21.10
2018-08-09T18:10:02.641Z,21.10
2018-08-09T18:12:31.009Z,21.00
2018-08-09T18:14:59.279Z,20.90
2018-08-09T18:17:27.611Z,21.00
2018-08-09T18:19:56.045Z,20.90
2018-08-09T18:22:24.425Z,20.80
2018-08-09T18:24:52.714Z,20.80
2018-08-09T18:27:21.004Z,20.80
2018-08-09T18:29:49.914Z,20.70
2018-08-09T18:32:18.240Z,20.70
2018-08-09T18:34:46.525Z,20.70
2018-08-09T18:37:14.804Z,20.60
2018-08-09T18:39:43.101Z,20.60
2018-08-09T18:42:11.413Z,20.60
2018-08-09T18:44:39.722Z,20.60
2018-08-09T18:47:08.052Z,20.60
2018-08-09T18:49:36.396Z,20.50
2018-08-09T18:52:04.937Z,20.50
2018-08-09T18:54:33.205Z,20.50
2018-08-09T18:57:01.514Z,20.40
2018-08-09T18:59:29.825Z,20.40
2018-08-09T19:01:58.185Z,20.40
2018-08-09T19:04:57.509Z,20.40
2018-08-09T19:07:25.784Z,20.40
2018-08-09T19:09:54.090Z,20.40
2018-08-09T19:12:22.417Z,20.30
2018-08-09T19:14:50.665Z,20.30
2018-08-09T19:17:18.955Z,20.30
2018-08-09T19:19:47.232Z,20.30
2018-08-09T19:22:15.513Z,20.20
2018-08-09T19:24:43.805Z,20.20
2018-08-09T19:27:12.118Z,20.20
2018-08-09T19:29:40.380Z,20.10
2018-08-09T19:32:08.741Z,20.10
2018-08-09T19:34:37.038Z,20.10
2018-08-09T19:37:05.324Z,20.00
2018-08-09T19:39:33.625Z,20.00
2018-08-09T19:42:01.966Z,20.00
2018-08-09T19:44:30.256Z,19.90
2018-08-09T19:46:58.587Z,19.80
2018-08-09T19:49:26.878Z,19.80
2018-08-09T19:51:55.188Z,19.80
2018-08-09T19:54:23.517Z,19.80
2018-08-09T19:56:51.749Z,19.80
2018-08-09T19:59:20.078Z,19.80
2018-08-09T20:01:48.354Z,19.70
2018-08-09T20:04:16.661Z,19.70
2018-08-09T20:06:44.997Z,19.70
2018-08-09T20:09:13.260Z,19.70
2018-08-09T20:11:41.614Z,19.60
2018-08-09T20:14:09.941Z,19.60
2018-08-09T20:16:38.270Z,19.60
2018-08-09T20:19:06.612Z,19.60
2018-08-09T20:21:34.926Z,19.60
2018-08-09T20:24:03.203Z,19.50
2018-08-09T20:26:31.723Z,19.50
2018-08-09T20:29:00.134Z,19.50
2018-08-09T20:31:28.495Z,19.50
2018-08-09T20:33:56.828Z,19.50
2018-08-09T20:36:25.114Z,19.50
2018-08-09T20:38:53.384Z,19.50
2018-08-09T20:41:21.884Z,19.40
2018-08-09T20:43:50.192Z,19.40
2018-08-09T20:46:18.461Z,19.40
2018-08-09T20:48:46.757Z,19.40
2018-08-09T20:51:15.053Z,19.50
2018-08-09T20:53:43.337Z,19.40
2018-08-09T20:56:11.595Z,19.40
2018-08-09T20:58:39.876Z,19.40
2018-08-09T21:01:08.224Z,19.40
2018-08-09T21:03:36.521Z,19.40
2018-08-09T21:06:04.921Z,19.40
2018-08-09T21:08:33.222Z,19.40
2018-08-09T21:11:01.538Z,19.40
2018-08-09T21:13:29.870Z,19.40
2018-08-09T21:15:58.120Z,19.40
2018-08-09T21:18:26.409Z,19.50
2018-08-09T21:20:54.681Z,19.40
2018-08-09T21:23:23.000Z,19.40
2018-08-09T21:25:51.250Z,19.50
2018-08-09T21:28:19.526Z,19.50
2018-08-09T21:30:47.885Z,19.40
2018-08-09T21:33:16.184Z,19.50
2018-08-09T21:35:44.456Z,19.40
2018-08-09T21:38:12.781Z,19.50
2018-08-09T21:40:41.077Z,19.40
2018-08-09T21:43:09.477Z,19.40
2018-08-09T21:45:37.772Z,19.40
2018-08-09T21:48:06.397Z,19.40
2018-08-09T21:50:34.680Z,19.40
2018-08-09T21:53:02.982Z,19.40
2018-08-09T21:55:31.286Z,19.40
2018-08-09T21:57:59.636Z,19.40
2018-08-09T22:00:41.730Z,19.40
2018-08-09T22:03:10.018Z,19.40
2018-08-09T22:05:43.692Z,19.30
2018-08-09T22:08:17.442Z,19.30
2018-08-09T22:10:51.096Z,19.30
2018-08-09T22:13:24.845Z,19.30
2018-08-09T22:15:58.548Z,19.30
2018-08-09T22:20:36.937Z,19.30
2018-08-09T22:23:05.869Z,19.30
2018-08-09T22:25:34.146Z,19.30
2018-08-09T22:28:02.526Z,19.30
2018-08-09T22:30:30.773Z,19.30
2018-08-09T22:32:59.076Z,19.30
2018-08-09T22:35:27.385Z,19.30
2018-08-09T22:37:55.630Z,19.30
2018-08-09T22:40:23.914Z,19.30
2018-08-09T22:42:52.182Z,19.30
2018-08-09T22:45:20.434Z,19.30
2018-08-09T22:47:48.709Z,19.20
2018-08-09T22:50:17.008Z,19.20
2018-08-09T22:52:45.249Z,19.20
2018-08-09T22:55:13.616Z,19.20
2018-08-09T22:57:41.860Z,19.20
2018-08-09T23:00:18.469Z,19.20
2018-08-09T23:02:46.720Z,19.20
2018-08-09T23:05:15.024Z,19.10
2018-08-09T23:07:43.345Z,19.10
2018-08-09T23:10:11.695Z,19.10
2018-08-09T23:12:39.963Z,19.10
2018-08-09T23:15:08.785Z,19.10
2018-08-09T23:17:37.092Z,19.10
2018-08-09T23:20:06.377Z,19.10
2018-08-09T23:22:34.677Z,19.10
2018-08-09T23:25:03.445Z,19.10
2018-08-09T23:27:31.744Z,19.10
2018-08-09T23:30:00.260Z,19.10
2018-08-09T23:32:28.565Z,19.00
2018-08-09T23:34:56.915Z,19.00
2018-08-09T23:37:25.229Z,18.90
2018-08-09T23:39:53.501Z,18.80
2018-08-09T23:42:21.781Z,18.70
2018-08-09T23:44:50.293Z,18.60
2018-08-09T23:47:18.624Z,18.50
2018-08-09T23:49:46.900Z,18.40
2018-08-09T23:52:15.196Z,18.30
2018-08-09T23:54:43.488Z,18.30
2018-08-09T23:57:11.841Z,18.20
2018-08-09T23:59:40.145Z,18.10
